Rockport, Texas
Current Conditions -  °F | °C
As of 10:53 PM on Monday 20 Oct 2014 (Local Time) from KRKP Reporting Station
Clear Clear  
Wind Chill: 76°   Ceiling: Unl
Heat Index: 76°   Visibility: 10mi
Dew Point: 69°   Wind: 12mph
Humidity: 79%   Direction: 80°E
Pressure: 29.99"   Gusts: NA
Location:  28.01°N, 97.06°W
Report Text: KRKP 210353Z AUTO 08010KT 10SM CLR 24/21 A2999 RMK AO2 SLP156 T02440206
Loading
Personal Weather Stations






























Interactive Weather Map
Tropical Storm Tracking
New forecast layout! Learn more

10-Day Weather Forecast

Advertisements
Track Severe Weather on mobile